Time;durP1;ratioP1;P1;durP2;ratioP2;P2;SDS_P1;SDS_P2;PMS_P1;PMS_P2;Temp;Humidity;BMP_temperature;BMP_pressure;BME280_temperature;BME280_humidity;BME280_pressure;Samples;Min_cycle;Max_cycle;Signal;HPM_P1;HPM_P2
2023/04/14 00:01:03;;;;;;;7.53;5.23;;;7.80;85.80;;;;;;5074984;28;20210;-91
2023/04/14 00:03:29;;;;;;;6.30;5.30;;;7.90;85.60;;;;;;5074614;28;20203;-91
2023/04/14 00:05:55;;;;;;;8.13;5.53;;;7.80;85.00;;;;;;5007664;28;20193;-90
2023/04/14 00:08:21;;;;;;;7.57;4.83;;;7.70;85.60;;;;;;4976514;28;20180;-91
2023/04/14 00:10:46;;;;;;;6.77;5.20;;;7.70;85.40;;;;;;4975292;28;20645;-91
2023/04/14 00:13:12;;;;;;;6.70;4.57;;;7.80;84.80;;;;;;4974497;28;20191;-90
2023/04/14 00:15:40;;;;;;;6.30;4.60;;;7.80;84.00;;;;;;4973731;28;20198;-91
2023/04/14 00:18:06;;;;;;;7.77;5.10;;;7.70;84.00;;;;;;4974717;28;20209;-89
2023/04/14 00:20:31;;;;;;;6.73;5.23;;;7.70;84.80;;;;;;5040170;28;20790;-90
2023/04/14 00:22:57;;;;;;;6.57;4.57;;;7.70;84.60;;;;;;4972632;28;20213;-91
2023/04/14 00:25:22;;;;;;;6.43;4.40;;;7.60;84.50;;;;;;4973314;28;20195;-91
2023/04/14 00:27:48;;;;;;;7.43;4.73;;;7.50;84.50;;;;;;4973876;28;20184;-91
2023/04/14 00:30:14;;;;;;;6.53;4.23;;;7.60;84.60;;;;;;4973562;28;20669;-91
2023/04/14 00:32:39;;;;;;;7.37;4.40;;;7.60;84.30;;;;;;4973763;28;20175;-90
2023/04/14 00:35:05;;;;;;;5.57;3.90;;;7.50;84.60;;;;;;4974311;28;20746;-91
2023/04/14 00:37:31;;;;;;;5.83;3.87;;;7.50;84.60;;;;;;4974293;28;20198;-92
2023/04/14 00:39:56;;;;;;;3.87;3.40;;;7.50;84.80;;;;;;4973795;28;20175;-90
2023/04/14 00:42:22;;;;;;;6.00;4.27;;;7.50;84.60;;;;;;4973335;28;20879;-91
2023/04/14 00:44:48;;;;;;;7.03;4.53;;;7.50;83.90;;;;;;4973266;28;20203;-91
2023/04/14 00:47:15;;;;;;;7.10;3.93;;;7.50;84.40;;;;;;4973156;28;20179;-91
2023/04/14 00:49:40;;;;;;;7.60;4.30;;;7.50;84.50;;;;;;4961513;28;20223;-90
2023/04/14 00:52:06;;;;;;;7.20;4.43;;;7.40;84.50;;;;;;4953338;28;20222;-89
2023/04/14 00:54:33;;;;;;;7.37;4.43;;;7.30;83.90;;;;;;4952979;29;20819;-88
2023/04/14 00:56:59;;;;;;;6.20;4.37;;;7.30;84.20;;;;;;4969185;28;20183;-91
2023/04/14 00:59:27;;;;;;;5.53;4.37;;;7.20;84.60;;;;;;4972682;28;20187;-91
2023/04/14 01:01:53;;;;;;;5.00;3.97;;;7.10;85.20;;;;;;4981309;28;20203;-90
2023/04/14 01:04:20;;;;;;;6.73;4.37;;;7.10;84.70;;;;;;4990260;28;20226;-90
2023/04/14 01:06:45;;;;;;;7.10;4.33;;;7.10;84.50;;;;;;4977913;28;20653;-90
2023/04/14 01:09:11;;;;;;;7.23;4.43;;;7.00;85.10;;;;;;4974505;28;20202;-90
2023/04/14 01:11:55;;;;;;;6.63;4.13;;;7.00;85.40;;;;;;4973551;28;20198;-91
2023/04/14 01:14:41;;;;;;;8.53;4.27;;;6.90;86.00;;;;;;4973462;28;20179;-91
2023/04/14 01:17:17;;;;;;;8.33;4.23;;;6.90;85.60;;;;;;4972206;28;20179;-90
2023/04/14 01:20:17;;;;;;;5.00;4.03;;;6.80;85.90;;;;;;4972940;28;20207;-89
2023/04/14 01:23:16;;;;;;;5.00;4.23;;;6.90;86.20;;;;;;4973085;28;20195;-90
2023/04/14 01:25:53;;;;;;;7.13;4.60;;;6.70;86.20;;;;;;4973265;28;20264;-91
2023/04/14 01:28:50;;;;;;;6.30;4.27;;;6.70;85.50;;;;;;4974047;28;20190;-90
2023/04/14 01:31:24;;;;;;;6.13;4.20;;;6.60;85.20;;;;;;4956784;28;20222;-91
2023/04/14 01:34:17;;;;;;;5.07;4.17;;;6.60;85.20;;;;;;4954268;28;20325;-90
2023/04/14 01:36:53;;;;;;;4.37;3.80;;;6.50;86.00;;;;;;4957543;29;20180;-91
2023/04/14 01:39:23;;;;;;;5.53;4.07;;;6.50;86.30;;;;;;4962168;28;20198;-94
2023/04/14 01:41:57;;;;;;;5.47;3.87;;;6.60;86.00;;;;;;4993957;28;20215;-90
2023/04/14 01:44:24;;;;;;;7.37;3.50;;;6.60;86.50;;;;;;4979163;28;20294;-90
2023/04/14 01:46:55;;;;;;;4.30;3.30;;;6.50;86.60;;;;;;4975355;28;20716;-89
2023/04/14 01:49:22;;;;;;;6.20;3.90;;;6.50;86.40;;;;;;4972052;28;20794;-91
2023/04/14 01:51:48;;;;;;;6.37;3.67;;;6.40;87.00;;;;;;4974974;28;20210;-90
2023/04/14 01:54:17;;;;;;;7.97;3.87;;;6.40;87.10;;;;;;5042105;28;20345;-89
2023/04/14 01:56:44;;;;;;;5.90;3.60;;;6.40;87.20;;;;;;4977527;28;20210;-90
2023/04/14 01:59:11;;;;;;;5.83;3.70;;;6.40;87.40;;;;;;4985928;28;20265;-91
2023/04/14 02:01:39;;;;;;;7.23;4.10;;;6.40;86.90;;;;;;4976739;28;20286;-91
2023/04/14 02:04:07;;;;;;;6.33;3.70;;;6.30;87.80;;;;;;4976303;28;20752;-91
2023/04/14 02:06:35;;;;;;;4.43;3.60;;;6.40;86.80;;;;;;4977543;28;20232;-91
2023/04/14 02:09:09;;;;;;;7.07;3.70;;;6.40;87.20;;;;;;4976358;28;20179;-91
2023/04/14 02:11:35;;;;;;;7.27;3.43;;;6.40;88.00;;;;;;4976919;28;20230;-92
2023/04/14 02:14:01;;;;;;;6.03;3.80;;;6.50;87.00;;;;;;4976450;28;20198;-91
2023/04/14 02:16:28;;;;;;;5.90;3.80;;;6.40;87.10;;;;;;4976514;28;20682;-91
2023/04/14 02:18:54;;;;;;;5.07;3.90;;;6.50;87.00;;;;;;4977329;28;20195;-90
2023/04/14 02:21:23;;;;;;;6.67;3.80;;;6.50;87.00;;;;;;4976592;28;20246;-89
2023/04/14 02:23:50;;;;;;;6.37;3.63;;;6.50;87.10;;;;;;4974883;28;20206;-91
2023/04/14 02:26:21;;;;;;;7.70;3.80;;;6.50;87.10;;;;;;4976366;28;20267;-89
2023/04/14 02:28:58;;;;;;;6.97;3.60;;;6.40;87.50;;;;;;4976129;28;20164;-91
2023/04/14 02:31:28;;;;;;;5.57;3.60;;;6.40;87.30;;;;;;4976363;28;20221;-89
2023/04/14 02:33:56;;;;;;;5.97;3.90;;;6.50;87.10;;;;;;4978787;28;20183;-91
2023/04/14 02:36:42;;;;;;;4.90;3.53;;;6.50;86.50;;;;;;4980970;28;20203;-91
2023/04/14 02:39:16;;;;;;;7.17;3.60;;;6.30;86.70;;;;;;4978920;28;20174;-89
2023/04/14 02:41:44;;;;;;;4.93;3.43;;;6.10;88.50;;;;;;5040823;28;20194;-91
2023/04/14 02:44:18;;;;;;;7.20;3.90;;;6.10;89.90;;;;;;4976252;28;20190;-89
2023/04/14 02:46:52;;;;;;;8.37;4.13;;;5.80;91.40;;;;;;4977140;28;20184;-89
2023/04/14 02:49:20;;;;;;;6.10;3.50;;;5.50;94.30;;;;;;4982984;28;20189;-91
2023/04/14 02:51:47;;;;;;;7.33;3.90;;;5.20;96.50;;;;;;4993224;28;20197;-91
2023/04/14 02:54:15;;;;;;;8.53;3.90;;;5.10;98.90;;;;;;5001625;28;20183;-91
2023/04/14 02:56:41;;;;;;;7.03;3.80;;;5.00;99.60;;;;;;5014381;28;20258;-92
2023/04/14 02:59:07;;;;;;;4.77;3.30;;;4.90;99.90;;;;;;5083772;28;20178;-91
2023/04/14 03:01:34;;;;;;;6.17;4.13;;;4.90;99.90;;;;;;5001240;28;20262;-91
2023/04/14 03:04:00;;;;;;;9.57;4.03;;;4.80;99.90;;;;;;4994349;28;20220;-92
2023/04/14 03:06:27;;;;;;;8.47;3.60;;;4.80;99.90;;;;;;4994657;28;20175;-91
2023/04/14 03:08:54;;;;;;;8.43;3.30;;;4.80;99.90;;;;;;4995757;28;20205;-91
2023/04/14 03:11:20;;;;;;;7.90;4.03;;;4.90;99.90;;;;;;4986516;28;20210;-90
2023/04/14 03:13:49;;;;;;;6.87;3.60;;;4.90;99.90;;;;;;4977363;28;20222;-91
2023/04/14 03:16:17;;;;;;;6.33;4.20;;;4.90;99.90;;;;;;4974966;28;20556;-90
2023/04/14 03:18:44;;;;;;;6.37;3.63;;;4.90;99.90;;;;;;4977340;28;20195;-91
2023/04/14 03:21:09;;;;;;;7.93;3.80;;;5.00;99.90;;;;;;5041522;28;20207;-89
2023/04/14 03:23:36;;;;;;;9.03;3.53;;;5.00;99.40;;;;;;4975103;28;20210;-92
2023/04/14 03:26:03;;;;;;;6.70;3.33;;;5.00;99.30;;;;;;4984807;28;20182;-91
2023/04/14 03:28:32;;;;;;;4.77;3.57;;;5.10;98.40;;;;;;4988262;28;20209;-89
2023/04/14 03:31:00;;;;;;;7.10;3.90;;;5.10;98.00;;;;;;4974769;28;20203;-90
2023/04/14 03:33:28;;;;;;;9.90;3.93;;;5.10;97.90;;;;;;4968979;28;20469;-91
2023/04/14 03:35:56;;;;;;;8.20;3.63;;;5.00;98.70;;;;;;4974331;28;20187;-91
2023/04/14 03:38:26;;;;;;;9.67;3.93;;;4.90;99.10;;;;;;4973793;28;20171;-91
2023/04/14 03:40:53;;;;;;;4.60;3.50;;;4.90;99.50;;;;;;4973054;28;20207;-91
2023/04/14 03:43:21;;;;;;;7.40;3.60;;;4.90;99.90;;;;;;4972269;28;20240;-90
2023/04/14 03:45:48;;;;;;;7.33;3.50;;;4.90;99.80;;;;;;5038241;28;20174;-90
2023/04/14 03:48:17;;;;;;;4.97;3.40;;;4.90;99.10;;;;;;4973136;28;20628;-91
2023/04/14 03:50:45;;;;;;;6.93;3.90;;;5.00;98.70;;;;;;4975247;28;20279;-91
2023/04/14 03:53:13;;;;;;;4.77;3.30;;;4.90;98.70;;;;;;4986166;28;20332;-91
2023/04/14 03:55:42;;;;;;;6.43;3.80;;;4.80;98.70;;;;;;4975065;28;20587;-89
2023/04/14 03:58:10;;;;;;;8.23;3.17;;;4.90;99.40;;;;;;4974820;28;20187;-91
2023/04/14 04:00:38;;;;;;;5.43;3.33;;;4.80;99.20;;;;;;4973256;28;20197;-90
2023/04/14 04:03:04;;;;;;;7.43;3.27;;;4.80;99.20;;;;;;4973769;28;20242;-92
2023/04/14 04:05:32;;;;;;;5.97;3.50;;;4.80;99.80;;;;;;4973293;28;20688;-92
2023/04/14 04:08:01;;;;;;;9.17;3.90;;;4.70;99.90;;;;;;4974462;28;20179;-91
2023/04/14 04:10:32;;;;;;;4.03;3.27;;;4.70;99.90;;;;;;4973796;28;20274;-91
2023/04/14 04:13:00;;;;;;;5.53;3.53;;;4.80;99.60;;;;;;4968327;28;20175;-90
2023/04/14 04:15:28;;;;;;;5.33;3.67;;;4.80;98.60;;;;;;4973160;28;20206;-91
2023/04/14 04:20:31;;;;;;;5.53;4.93;;;4.90;99.60;;;;;;5076239;28;20225;-88
2023/04/14 04:22:59;;;;;;;8.03;6.70;;;5.00;98.60;;;;;;5078253;28;20175;-88
2023/04/14 04:25:24;;;;;;;6.87;4.20;;;5.10;97.80;;;;;;5059955;28;20556;-89
2023/04/14 04:27:50;;;;;;;5.67;4.83;;;5.20;97.00;;;;;;5080196;28;20251;-89
2023/04/14 04:30:18;;;;;;;15.43;14.13;;;5.30;96.30;;;;;;5077601;28;20225;-88
2023/04/14 04:32:44;;;;;;;10.07;9.07;;;5.20;95.50;;;;;;5076218;28;20242;-87
2023/04/14 04:35:10;;;;;;;12.00;10.17;;;5.30;95.50;;;;;;5075888;28;20700;-90
2023/04/14 04:37:37;;;;;;;10.33;9.30;;;5.30;95.40;;;;;;5076801;28;20183;-88
2023/04/14 04:40:03;;;;;;;9.30;6.87;;;5.30;94.80;;;;;;5079022;28;20196;-91
2023/04/14 04:42:28;;;;;;;7.33;6.00;;;5.30;94.20;;;;;;5094944;28;20221;-91
2023/04/14 04:44:54;;;;;;;10.57;9.60;;;5.20;95.20;;;;;;5095467;28;20207;-91
2023/04/14 04:47:20;;;;;;;7.60;6.57;;;5.20;95.10;;;;;;5095478;28;20164;-91
2023/04/14 04:49:46;;;;;;;8.37;5.97;;;5.10;95.20;;;;;;5089874;28;20215;-90
2023/04/14 04:52:11;;;;;;;10.50;8.70;;;5.00;95.80;;;;;;5096705;28;20199;-91
2023/04/14 04:54:37;;;;;;;7.40;5.63;;;5.00;96.30;;;;;;5091695;28;20191;-89
2023/04/14 04:57:03;;;;;;;5.40;4.50;;;4.90;96.40;;;;;;5072275;28;20206;-88
2023/04/14 04:59:28;;;;;;;11.20;3.80;;;5.00;96.80;;;;;;5076442;28;20203;-88
2023/04/14 05:01:54;;;;;;;6.13;3.53;;;5.00;96.50;;;;;;5070353;28;20183;-87
2023/04/14 05:04:20;;;;;;;8.10;3.83;;;5.00;96.80;;;;;;5069908;28;20206;-89
2023/04/14 05:06:46;;;;;;;4.93;3.43;;;5.00;96.40;;;;;;5065764;28;20183;-89
2023/04/14 05:09:11;;;;;;;7.70;4.00;;;5.00;96.10;;;;;;5073844;28;20195;-88
2023/04/14 05:11:37;;;;;;;8.13;3.83;;;5.10;95.50;;;;;;5078312;28;20191;-88
2023/04/14 05:14:03;;;;;;;5.37;3.70;;;5.10;95.50;;;;;;5068411;28;20542;-88
2023/04/14 05:16:29;;;;;;;5.07;4.43;;;5.10;95.70;;;;;;5061593;28;20196;-87
2023/04/14 05:18:55;;;;;;;9.23;3.90;;;5.20;96.10;;;;;;5083130;28;20287;-88
2023/04/14 05:21:22;;;;;;;6.43;3.63;;;5.20;96.20;;;;;;5100491;28;20171;-90
2023/04/14 05:23:48;;;;;;;5.97;3.60;;;5.20;96.00;;;;;;5101303;28;20220;-88
2023/04/14 05:26:15;;;;;;;6.87;3.73;;;5.30;95.40;;;;;;5099574;28;20175;-89
2023/04/14 05:28:41;;;;;;;6.27;3.93;;;5.20;95.20;;;;;;5098778;28;20286;-87
2023/04/14 05:31:07;;;;;;;6.40;4.00;;;5.10;96.50;;;;;;5096078;28;20257;-89
2023/04/14 05:33:34;;;;;;;7.00;3.97;;;5.00;98.90;;;;;;5080183;28;20250;-89
2023/04/14 05:36:00;;;;;;;5.47;3.73;;;5.00;99.10;;;;;;5098267;28;20208;-90
2023/04/14 05:38:26;;;;;;;9.37;4.33;;;4.80;99.90;;;;;;5099182;28;20221;-88
2023/04/14 05:40:52;;;;;;;5.40;3.67;;;4.80;99.90;;;;;;5099300;28;20175;-89
2023/04/14 05:43:18;;;;;;;7.23;4.13;;;4.70;99.90;;;;;;5099955;28;20205;-88
2023/04/14 05:45:46;;;;;;;8.43;4.30;;;4.70;99.90;;;;;;5100041;28;20175;-90
2023/04/14 05:48:12;;;;;;;9.17;4.00;;;4.60;99.90;;;;;;5100690;28;20309;-88
2023/04/14 05:50:38;;;;;;;6.57;4.43;;;4.60;99.90;;;;;;5100474;28;20239;-89
2023/04/14 05:53:04;;;;;;;9.17;3.97;;;4.60;99.90;;;;;;5101056;28;20175;-90
2023/04/14 05:55:30;;;;;;;8.53;4.20;;;4.70;99.90;;;;;;5098008;28;20278;-88
2023/04/14 05:57:56;;;;;;;8.60;4.33;;;4.70;99.90;;;;;;5100218;28;20197;-89
2023/04/14 06:00:23;;;;;;;9.57;4.20;;;4.80;99.90;;;;;;5101557;28;20665;-89
2023/04/14 06:02:50;;;;;;;7.23;4.50;;;4.80;99.90;;;;;;5100560;28;20190;-88
2023/04/14 06:05:16;;;;;;;8.20;4.07;;;5.00;99.90;;;;;;5080545;28;20225;-88
2023/04/14 06:07:42;;;;;;;9.00;4.43;;;5.00;99.90;;;;;;5099488;28;20640;-89
2023/04/14 06:10:09;;;;;;;7.33;4.53;;;5.20;99.90;;;;;;5100580;28;20194;-89
2023/04/14 06:12:36;;;;;;;9.90;3.60;;;5.20;99.90;;;;;;5099439;28;20171;-88
2023/04/14 06:15:03;;;;;;;8.20;4.27;;;5.30;99.90;;;;;;5099288;28;20220;-88
2023/04/14 06:17:28;;;;;;;9.23;4.30;;;5.40;99.90;;;;;;5099978;28;20236;-89
2023/04/14 06:19:54;;;;;;;9.93;4.60;;;5.40;99.90;;;;;;5099985;28;20241;-90
2023/04/14 06:22:20;;;;;;;8.87;5.07;;;5.50;99.90;;;;;;5099182;28;20648;-88
2023/04/14 06:24:45;;;;;;;6.93;4.20;;;5.40;99.90;;;;;;5104076;28;20195;-88
2023/04/14 06:27:11;;;;;;;7.63;4.30;;;5.40;99.90;;;;;;5102710;28;20189;-88
2023/04/14 06:29:37;;;;;;;5.90;4.10;;;5.50;99.90;;;;;;5101700;28;20195;-89
2023/04/14 06:32:03;;;;;;;7.37;4.20;;;5.50;99.90;;;;;;5101695;28;20183;-90
2023/04/14 06:34:28;;;;;;;6.27;3.73;;;5.60;99.90;;;;;;5081318;28;20185;-88
2023/04/14 06:36:55;;;;;;;8.07;4.13;;;5.70;99.90;;;;;;5098425;28;20218;-87
2023/04/14 06:39:21;;;;;;;8.60;4.30;;;5.80;99.90;;;;;;5080984;28;20218;-88
2023/04/14 06:41:47;;;;;;;8.80;4.27;;;6.00;99.90;;;;;;5101405;28;20406;-88
2023/04/14 06:44:13;;;;;;;7.23;4.10;;;6.10;99.90;;;;;;5101491;28;20214;-90
2023/04/14 06:46:39;;;;;;;7.13;4.13;;;6.00;99.90;;;;;;5099933;28;20255;-89
2023/04/14 06:49:06;;;;;;;8.57;4.37;;;6.10;99.90;;;;;;5079738;28;20192;-88
2023/04/14 06:51:32;;;;;;;7.03;3.97;;;6.10;99.90;;;;;;5062665;28;20180;-89
2023/04/14 06:53:58;;;;;;;4.90;3.83;;;6.20;99.90;;;;;;5079807;28;20183;-89
2023/04/14 06:56:23;;;;;;;9.17;4.00;;;6.40;99.90;;;;;;5098103;28;20182;-90
2023/04/14 06:58:49;;;;;;;9.73;4.37;;;6.50;99.90;;;;;;5099334;28;20264;-88
2023/04/14 07:01:15;;;;;;;7.07;3.57;;;6.60;99.90;;;;;;5100628;28;20171;-91
2023/04/14 07:03:41;;;;;;;11.33;4.40;;;6.60;99.90;;;;;;5081412;28;20225;-89
2023/04/14 07:06:10;;;;;;;6.37;3.97;;;6.60;99.90;;;;;;5099075;28;20186;-90
2023/04/14 07:08:37;;;;;;;6.70;4.00;;;6.80;99.90;;;;;;5074390;28;21349;-87
2023/04/14 07:11:05;;;;;;;5.10;3.90;;;6.90;99.90;;;;;;5084702;28;20274;-90
2023/04/14 07:13:32;;;;;;;6.90;4.03;;;6.80;99.90;;;;;;5082771;28;20213;-90
2023/04/14 07:15:58;;;;;;;7.03;4.03;;;6.90;99.90;;;;;;5066477;28;20188;-87
2023/04/14 07:18:24;;;;;;;8.37;4.73;;;7.00;99.90;;;;;;5065484;28;20245;-87
2023/04/14 07:20:53;;;;;;;6.93;3.93;;;7.20;99.70;;;;;;5067504;28;20191;-88
2023/04/14 07:23:20;;;;;;;7.07;4.27;;;7.50;95.20;;;;;;5081649;28;20179;-86
2023/04/14 07:26:04;;;;;;;5.87;3.83;;;7.70;92.40;;;;;;5081932;28;20202;-88
2023/04/14 07:28:31;;;;;;;7.43;3.70;;;7.50;94.70;;;;;;5078334;28;20220;-89
2023/04/14 07:30:56;;;;;;;9.33;4.17;;;7.50;95.00;;;;;;5081495;28;20767;-90
2023/04/14 07:33:23;;;;;;;4.87;3.23;;;7.70;93.40;;;;;;5081993;28;20247;-91
2023/04/14 07:35:50;;;;;;;7.23;3.70;;;7.90;93.30;;;;;;5065415;28;20194;-90
2023/04/14 07:38:18;;;;;;;6.90;3.83;;;7.80;91.90;;;;;;5081291;28;20225;-89
2023/04/14 07:40:44;;;;;;;8.97;4.17;;;7.90;91.20;;;;;;5064437;28;20212;-88
2023/04/14 07:43:10;;;;;;;7.73;3.83;;;8.00;91.20;;;;;;5086000;28;20198;-90
2023/04/14 07:45:36;;;;;;;7.97;4.20;;;8.10;92.70;;;;;;5082794;28;20207;-89
2023/04/14 07:48:01;;;;;;;4.10;3.50;;;8.20;91.40;;;;;;5065852;28;20191;-91
2023/04/14 07:50:27;;;;;;;6.67;3.50;;;8.30;90.00;;;;;;5067818;28;20184;-90
2023/04/14 07:52:53;;;;;;;7.07;3.20;;;8.40;88.40;;;;;;5086151;28;20183;-90
2023/04/14 07:55:19;;;;;;;7.63;3.80;;;8.40;86.00;;;;;;5065750;28;20190;-89
2023/04/14 07:57:44;;;;;;;6.90;3.87;;;8.50;85.50;;;;;;5077069;28;20171;-89
2023/04/14 08:00:10;;;;;;;10.40;3.93;;;8.50;84.90;;;;;;5078924;28;20257;-90
2023/04/14 08:02:37;;;;;;;5.77;3.73;;;8.60;85.10;;;;;;5079146;28;20266;-91
2023/04/14 08:05:03;;;;;;;7.87;4.10;;;8.70;86.00;;;;;;5080757;28;20210;-89
2023/04/14 08:07:29;;;;;;;8.20;3.80;;;8.70;83.50;;;;;;5098270;28;20194;-90
2023/04/14 08:09:54;;;;;;;6.37;3.50;;;8.80;82.60;;;;;;5099869;28;20210;-88
2023/04/14 08:12:20;;;;;;;6.77;3.33;;;8.90;80.70;;;;;;5100429;28;20640;-90
2023/04/14 08:14:49;;;;;;;9.00;3.97;;;9.10;82.50;;;;;;5099382;28;20243;-91
2023/04/14 08:17:15;;;;;;;6.40;3.40;;;9.30;79.00;;;;;;5103321;28;20178;-87
2023/04/14 08:19:40;;;;;;;7.97;3.63;;;9.50;80.30;;;;;;5087376;28;20217;-88
2023/04/14 08:22:06;;;;;;;8.23;3.40;;;9.50;77.30;;;;;;5107637;28;20199;-94
2023/04/14 08:24:32;;;;;;;10.47;3.80;;;9.60;77.50;;;;;;5110592;28;20222;-89
2023/04/14 08:26:58;;;;;;;9.80;4.20;;;9.60;77.70;;;;;;5098999;28;20183;-87
2023/04/14 08:29:23;;;;;;;4.80;3.57;;;9.80;77.70;;;;;;5099015;28;20203;-88
2023/04/14 08:31:49;;;;;;;6.13;3.90;;;9.90;75.70;;;;;;5097955;28;20684;-91
2023/04/14 08:34:15;;;;;;;8.37;4.10;;;10.00;77.10;;;;;;5098349;28;20185;-90
2023/04/14 08:36:41;;;;;;;4.63;3.80;;;10.20;77.00;;;;;;5096956;28;20198;-91
2023/04/14 08:39:06;;;;;;;6.03;3.77;;;10.30;75.00;;;;;;5079349;28;20218;-89
2023/04/14 08:41:33;;;;;;;6.83;3.90;;;10.40;72.90;;;;;;5080276;28;20301;-89
2023/04/14 08:44:01;;;;;;;7.53;3.30;;;10.50;73.00;;;;;;5099551;28;20194;-87
2023/04/14 08:46:27;;;;;;;6.10;3.47;;;10.70;71.80;;;;;;5100626;28;20208;-89
2023/04/14 08:49:02;;;;;;;6.37;3.60;;;10.70;69.00;;;;;;5101392;28;20244;-88
2023/04/14 08:51:33;;;;;;;4.40;3.30;;;10.70;67.80;;;;;;5101543;28;20177;-89
2023/04/14 08:54:00;;;;;;;11.87;3.60;;;10.90;68.70;;;;;;5088814;28;20206;-89
2023/04/14 08:56:47;;;;;;;6.13;3.47;;;10.90;68.90;;;;;;5090725;28;20191;-89
2023/04/14 08:59:13;;;;;;;7.07;3.33;;;11.10;68.30;;;;;;5101577;28;20202;-89
2023/04/14 09:01:39;;;;;;;5.37;3.77;;;11.30;65.90;;;;;;5100832;28;20190;-89
2023/04/14 09:04:05;;;;;;;4.33;3.30;;;11.20;67.10;;;;;;5101862;28;20210;-84
2023/04/14 09:06:32;;;;;;;6.53;3.70;;;11.30;65.80;;;;;;5101216;28;20198;-87
2023/04/14 09:09:02;;;;;;;7.23;3.77;;;11.30;65.60;;;;;;5100416;28;20203;-87
2023/04/14 09:11:29;;;;;;;6.10;3.50;;;11.40;66.80;;;;;;5084329;28;20175;-86
2023/04/14 09:13:58;;;;;;;7.13;3.60;;;11.60;65.00;;;;;;5102756;28;20546;-89
2023/04/14 09:16:25;;;;;;;7.37;4.10;;;11.60;64.80;;;;;;5081628;28;20199;-87
2023/04/14 09:18:52;;;;;;;5.87;3.33;;;11.80;64.90;;;;;;5100494;28;20217;-90
2023/04/14 09:21:18;;;;;;;5.40;3.60;;;11.70;63.40;;;;;;5091966;28;20189;-88
2023/04/14 09:23:45;;;;;;;6.63;3.20;;;11.60;63.90;;;;;;5100415;28;20207;-88
2023/04/14 09:26:12;;;;;;;6.27;2.90;;;11.30;66.10;;;;;;5098814;28;20340;-88
2023/04/14 09:28:38;;;;;;;6.03;3.40;;;11.70;60.70;;;;;;5083610;28;20223;-89
2023/04/14 09:31:04;;;;;;;8.77;3.47;;;11.90;60.90;;;;;;5069397;28;20180;-91
2023/04/14 09:33:30;;;;;;;4.93;3.37;;;12.00;59.40;;;;;;5081319;28;20181;-87
2023/04/14 09:35:56;;;;;;;6.50;3.40;;;12.20;58.20;;;;;;5100419;28;20281;-90
2023/04/14 09:38:38;;;;;;;4.27;2.67;;;12.30;56.00;;;;;;5101957;28;20196;-88
2023/04/14 09:41:07;;;;;;;5.97;3.23;;;12.20;57.30;;;;;;5104416;28;20178;-90
2023/04/14 09:43:33;;;;;;;7.43;3.30;;;12.40;56.70;;;;;;5085087;28;20246;-88
2023/04/14 09:46:08;;;;;;;4.57;3.43;;;12.00;56.20;;;;;;5103711;28;20185;-89
2023/04/14 09:48:36;;;;;;;5.83;3.30;;;12.30;58.70;;;;;;5089869;28;20194;-86
2023/04/14 09:51:08;;;;;;;5.73;3.20;;;12.00;56.00;;;;;;5102269;28;20187;-89
2023/04/14 09:53:36;;;;;;;4.40;3.23;;;12.20;56.20;;;;;;5085623;28;20188;-89
2023/04/14 09:56:06;;;;;;;4.23;3.07;;;12.40;55.70;;;;;;5083071;28;20214;-90
2023/04/14 09:58:34;;;;;;;3.90;3.33;;;12.60;58.30;;;;;;5101047;28;20214;-88
2023/04/14 10:01:04;;;;;;;6.37;3.40;;;12.80;56.90;;;;;;5100743;28;20242;-89
2023/04/14 10:03:40;;;;;;;6.10;3.57;;;13.10;56.90;;;;;;5100773;28;20185;-89
2023/04/14 10:06:09;;;;;;;7.03;3.63;;;13.40;53.80;;;;;;5099822;28;20169;-88
2023/04/14 10:08:40;;;;;;;5.60;3.83;;;13.40;56.40;;;;;;5099463;28;20206;-88
2023/04/14 10:11:17;;;;;;;8.00;4.40;;;13.10;54.30;;;;;;5081693;28;20179;-90
2023/04/14 10:13:45;;;;;;;4.77;3.20;;;13.50;56.70;;;;;;5100695;28;20171;-91
2023/04/14 10:16:10;;;;;;;6.10;3.10;;;13.80;51.50;;;;;;5084860;28;20269;-89
2023/04/14 10:18:36;;;;;;;4.00;3.07;;;13.80;54.40;;;;;;5103043;28;20287;-89
2023/04/14 10:21:03;;;;;;;5.00;3.10;;;14.20;49.50;;;;;;5101452;28;20184;-89
2023/04/14 10:23:32;;;;;;;4.33;3.57;;;14.00;51.80;;;;;;5098876;28;20192;-88
2023/04/14 10:26:00;;;;;;;4.77;3.30;;;14.00;51.10;;;;;;5096145;28;20197;-88
2023/04/14 10:28:27;;;;;;;3.27;2.97;;;14.10;51.50;;;;;;5092841;28;20192;-88
2023/04/14 10:30:55;;;;;;;5.67;3.20;;;14.50;48.40;;;;;;5103788;28;20294;-86
2023/04/14 10:33:21;;;;;;;4.23;2.97;;;14.40;53.30;;;;;;5106389;28;20239;-90
2023/04/14 10:35:53;;;;;;;4.37;3.10;;;14.80;47.90;;;;;;5088024;28;20207;-89
2023/04/14 10:38:19;;;;;;;6.40;3.20;;;15.00;47.00;;;;;;5101031;28;20223;-86
2023/04/14 10:40:50;;;;;;;6.47;3.33;;;14.60;48.80;;;;;;5098511;28;20193;-87
2023/04/14 10:43:16;;;;;;;4.70;3.53;;;14.40;48.20;;;;;;5097569;28;20225;-88
2023/04/14 10:45:58;;;;;;;5.97;3.70;;;14.60;47.10;;;;;;5098214;28;20209;-87
2023/04/14 10:48:32;;;;;;;4.80;3.50;;;14.90;48.70;;;;;;5099460;28;20222;-87
2023/04/14 10:50:58;;;;;;;5.70;3.20;;;14.80;46.30;;;;;;5098464;28;20620;-87
2023/04/14 10:53:27;;;;;;;5.40;3.47;;;15.30;45.30;;;;;;5098273;28;20175;-88
2023/04/14 10:55:57;;;;;;;6.63;3.40;;;15.60;48.80;;;;;;5099455;28;20653;-88
2023/04/14 10:58:28;;;;;;;5.80;3.00;;;14.80;45.40;;;;;;5101527;28;20283;-85
2023/04/14 11:00:56;;;;;;;4.23;3.40;;;14.60;46.40;;;;;;5103719;28;20189;-90
2023/04/14 11:03:22;;;;;;;4.80;3.33;;;15.40;44.50;;;;;;5100986;28;20190;-93
2023/04/14 11:05:49;;;;;;;5.40;3.23;;;15.20;46.20;;;;;;5099607;28;20269;-89
2023/04/14 11:08:15;;;;;;;3.90;2.93;;;15.30;43.70;;;;;;5079342;28;20887;-88
2023/04/14 11:10:47;;;;;;;4.60;3.33;;;15.70;44.30;;;;;;5097340;28;20185;-91
2023/04/14 11:13:14;;;;;;;8.33;3.97;;;15.80;42.60;;;;;;5095365;28;20197;-89
2023/04/14 11:15:46;;;;;;;4.10;2.90;;;16.40;41.30;;;;;;5084811;28;20190;-91
2023/04/14 11:18:36;;;;;;;6.83;3.87;;;15.50;42.70;;;;;;5097015;28;20205;-91
2023/04/14 11:21:05;;;;;;;3.27;2.97;;;14.70;45.10;;;;;;5099098;28;20259;-89
2023/04/14 11:23:32;;;;;;;3.37;2.70;;;14.40;45.10;;;;;;5098271;28;20754;-89
2023/04/14 11:25:58;;;;;;;4.80;2.87;;;14.50;42.80;;;;;;5079555;28;20245;-87
2023/04/14 11:28:32;;;;;;;4.43;3.03;;;15.20;42.40;;;;;;5098379;28;20201;-86
2023/04/14 11:31:00;;;;;;;4.83;3.00;;;15.70;40.30;;;;;;5097787;28;20604;-87
2023/04/14 11:33:28;;;;;;;3.40;3.00;;;16.30;36.50;;;;;;5077781;28;20229;-87
2023/04/14 11:35:54;;;;;;;4.57;3.00;;;16.90;37.80;;;;;;5078642;28;20260;-88
2023/04/14 11:38:20;;;;;;;6.90;3.37;;;16.70;36.60;;;;;;5078407;28;20199;-86
2023/04/14 11:40:52;;;;;;;3.47;2.77;;;17.00;36.40;;;;;;5081817;28;20675;-88
2023/04/14 11:43:18;;;;;;;4.70;2.70;;;17.40;33.90;;;;;;5081243;28;20271;-88
2023/04/14 11:45:45;;;;;;;2.97;2.67;;;17.00;35.50;;;;;;5079418;28;20211;-90
2023/04/14 11:48:13;;;;;;;3.03;2.53;;;16.70;36.20;;;;;;5076315;28;20173;-88
2023/04/14 11:50:38;;;;;;;3.73;3.03;;;17.30;36.10;;;;;;5100645;28;20174;-86
2023/04/14 11:53:08;;;;;;;3.80;2.97;;;17.60;33.80;;;;;;5099942;28;20648;-88
2023/04/14 11:55:34;;;;;;;5.23;3.67;;;18.10;34.20;;;;;;5099726;28;20174;-89
2023/04/14 11:58:01;;;;;;;3.57;2.83;;;17.90;36.90;;;;;;5100511;28;20183;-88
2023/04/14 12:00:27;;;;;;;4.80;3.10;;;17.40;34.30;;;;;;5100027;28;20176;-88
2023/04/14 12:02:53;;;;;;;4.33;3.20;;;17.60;33.80;;;;;;5098417;28;20213;-89
2023/04/14 12:05:30;;;;;;;3.53;3.03;;;17.70;32.60;;;;;;5097598;28;20221;-89
2023/04/14 12:07:59;;;;;;;3.80;3.20;;;17.80;33.00;;;;;;5079951;28;20626;-87
2023/04/14 12:10:25;;;;;;;6.47;3.80;;;18.10;32.40;;;;;;5098758;28;20193;-84
2023/04/14 12:13:09;;;;;;;4.03;3.25;;;18.80;32.10;;;;;;5099417;28;20197;-85
2023/04/14 12:15:36;;;;;;;4.68;3.22;;;18.60;31.30;;;;;;5096441;28;20261;-87
2023/04/14 12:18:08;;;;;;;4.57;3.28;;;18.50;33.60;;;;;;5097528;28;20210;-87
2023/04/14 12:20:52;;;;;;;3.13;2.90;;;19.00;33.00;;;;;;5099169;28;20166;-88
2023/04/14 12:23:18;;;;;;;3.58;2.80;;;19.00;32.50;;;;;;5101684;28;20181;-91
2023/04/14 12:25:43;;;;;;;3.90;3.13;;;18.10;31.50;;;;;;5083908;28;20397;-89
2023/04/14 12:28:15;;;;;;;4.03;3.28;;;17.90;30.00;;;;;;5103119;28;20176;-90
2023/04/14 12:30:50;;;;;;;3.78;3.17;;;18.30;31.80;;;;;;5099269;28;20198;-91
2023/04/14 12:33:16;;;;;;;4.70;3.20;;;18.70;28.90;;;;;;5082735;28;20178;-91
2023/04/14 12:35:42;;;;;;;3.53;3.22;;;18.60;29.00;;;;;;5099271;28;20208;-89
2023/04/14 12:38:11;;;;;;;3.75;3.20;;;18.80;28.50;;;;;;5098841;28;20187;-91
2023/04/14 12:40:45;;;;;;;5.95;3.40;;;18.40;29.70;;;;;;5099768;28;20669;-87
2023/04/14 12:43:12;;;;;;;3.67;3.05;;;18.10;29.00;;;;;;5099776;28;20178;-88
2023/04/14 12:45:39;;;;;;;3.22;2.95;;;18.90;30.20;;;;;;5099762;28;20253;-87
2023/04/14 12:48:05;;;;;;;3.67;3.10;;;18.90;29.90;;;;;;5099762;28;20162;-88
2023/04/14 12:50:32;;;;;;;3.95;3.53;;;18.50;30.00;;;;;;5080407;28;20402;-90
2023/04/14 12:53:22;;;;;;;4.40;3.20;;;18.60;32.30;;;;;;5068757;28;20186;-91
2023/04/14 12:56:01;;;;;;;4.20;3.40;;;19.10;30.00;;;;;;5094020;28;20175;-90
2023/04/14 12:58:28;;;;;;;4.03;3.58;;;19.60;28.90;;;;;;5099211;28;20210;-87
2023/04/14 13:00:54;;;;;;;6.95;3.55;;;20.20;28.90;;;;;;5098235;28;20251;-89